createdAt,value
2018-09-09T00:01:00.124Z,8.13
2018-09-09T00:03:28.582Z,8.73
2018-09-09T00:05:57.160Z,9.10
2018-09-09T00:08:26.351Z,8.17
2018-09-09T00:10:56.042Z,8.57
2018-09-09T00:13:24.570Z,7.87
2018-09-09T00:15:52.998Z,8.33
2018-09-09T00:18:21.558Z,8.43
2018-09-09T00:20:50.107Z,8.50
2018-09-09T00:23:18.580Z,8.63
2018-09-09T00:25:47.215Z,7.83
2018-09-09T00:28:16.844Z,8.57
2018-09-09T00:30:45.378Z,8.27
2018-09-09T00:33:13.840Z,8.43
2018-09-09T00:35:43.043Z,7.90
2018-09-09T00:38:11.500Z,8.63
2018-09-09T00:40:40.016Z,8.03
2018-09-09T00:43:08.556Z,8.70
2018-09-09T00:45:37.291Z,8.63
2018-09-09T00:48:05.793Z,8.27
2018-09-09T00:50:39.556Z,8.77
2018-09-09T00:53:13.570Z,8.53
2018-09-09T00:55:41.978Z,8.53
2018-09-09T00:58:10.444Z,8.43
2018-09-09T01:00:44.337Z,8.40
2018-09-09T01:03:12.781Z,9.37
2018-09-09T01:05:41.261Z,8.93
2018-09-09T01:08:09.725Z,8.67
2018-09-09T01:10:38.220Z,7.97
2018-09-09T01:13:06.721Z,8.40
2018-09-09T01:15:36.024Z,8.40
2018-09-09T01:18:04.520Z,8.23
2018-09-09T01:20:33.743Z,8.13
2018-09-09T01:23:02.232Z,8.63
2018-09-09T01:25:31.257Z,7.97
2018-09-09T01:27:59.766Z,7.83
2018-09-09T01:30:28.266Z,8.17
2018-09-09T01:32:57.456Z,8.60
2018-09-09T01:35:32.502Z,8.10
2018-09-09T01:38:00.975Z,8.30
2018-09-09T01:40:29.460Z,8.23
2018-09-09T01:42:57.950Z,8.00
2018-09-09T01:45:26.453Z,7.97
2018-09-09T01:47:54.947Z,8.17
2018-09-09T01:50:23.427Z,7.83
2018-09-09T01:52:51.884Z,7.40
2018-09-09T01:55:21.020Z,8.30
2018-09-09T01:57:49.612Z,8.87
2018-09-09T02:00:18.944Z,8.53
2018-09-09T02:02:47.879Z,7.63
2018-09-09T02:05:16.331Z,8.30
2018-09-09T02:07:44.767Z,8.17
2018-09-09T02:10:13.321Z,8.40
2018-09-09T02:12:41.905Z,8.10
2018-09-09T02:15:10.935Z,8.93
2018-09-09T02:17:39.380Z,8.03
2018-09-09T02:20:08.012Z,8.33
2018-09-09T02:22:36.442Z,8.50
2018-09-09T02:25:05.157Z,9.67
2018-09-09T02:27:33.628Z,8.07
2018-09-09T02:30:02.252Z,8.03
2018-09-09T02:32:30.692Z,8.17
2018-09-09T02:34:59.148Z,9.73
2018-09-09T02:37:27.575Z,8.03
2018-09-09T02:39:56.041Z,8.73
2018-09-09T02:42:25.207Z,8.53
2018-09-09T02:44:53.800Z,9.53
2018-09-09T02:47:22.895Z,10.37
2018-09-09T02:49:51.344Z,10.30
2018-09-09T02:52:19.801Z,9.83
2018-09-09T02:54:48.238Z,9.17
2018-09-09T02:57:16.806Z,9.53
2018-09-09T02:59:45.232Z,8.70
2018-09-09T03:02:13.679Z,9.03
2018-09-09T03:04:42.140Z,8.43
2018-09-09T03:07:12.221Z,9.00
2018-09-09T03:09:40.645Z,9.77
2018-09-09T03:12:09.143Z,9.90
2018-09-09T03:14:37.600Z,9.73
2018-09-09T03:17:06.023Z,9.83
2018-09-09T03:19:34.451Z,9.93
2018-09-09T03:22:02.913Z,9.27
2018-09-09T03:24:31.355Z,9.83
2018-09-09T03:26:59.813Z,9.67
2018-09-09T03:29:28.382Z,9.50
2018-09-09T03:31:56.848Z,9.77
2018-09-09T03:34:26.015Z,8.90
2018-09-09T03:36:54.664Z,8.80
2018-09-09T03:39:23.158Z,9.13
2018-09-09T03:41:51.615Z,9.53
2018-09-09T03:44:20.087Z,10.10
2018-09-09T03:46:48.560Z,9.30
2018-09-09T03:49:17.115Z,8.87
2018-09-09T03:51:45.565Z,10.20
2018-09-09T03:54:14.698Z,9.80
2018-09-09T03:56:43.249Z,10.27
2018-09-09T03:59:11.665Z,9.43
2018-09-09T04:01:40.099Z,9.47
2018-09-09T04:04:08.523Z,9.60
2018-09-09T04:06:37.003Z,9.40
2018-09-09T04:09:07.097Z,10.20
2018-09-09T04:11:35.647Z,9.93
2018-09-09T04:14:04.229Z,10.07
2018-09-09T04:16:32.816Z,10.70
2018-09-09T04:19:01.289Z,10.53
2018-09-09T04:21:29.725Z,10.30
2018-09-09T04:23:58.181Z,10.30
2018-09-09T04:26:27.099Z,9.90
2018-09-09T04:28:55.669Z,9.80
2018-09-09T04:31:24.841Z,9.80
2018-09-09T04:33:53.404Z,9.90
2018-09-09T04:36:21.934Z,8.70
2018-09-09T04:38:51.200Z,10.03
2018-09-09T04:41:20.156Z,9.80
2018-09-09T04:43:48.782Z,9.57
2018-09-09T04:46:17.302Z,9.67
2018-09-09T04:48:45.756Z,10.50
2018-09-09T04:51:14.895Z,9.40
2018-09-09T04:53:43.454Z,9.13
2018-09-09T04:56:11.881Z,10.20
2018-09-09T04:58:40.412Z,10.33
2018-09-09T05:01:08.845Z,9.80
2018-09-09T05:03:37.265Z,9.93
2018-09-09T05:06:05.739Z,10.00
2018-09-09T05:08:34.191Z,9.83
2018-09-09T05:11:02.648Z,9.47
2018-09-09T05:13:31.136Z,9.87
2018-09-09T05:15:59.597Z,10.17
2018-09-09T05:18:28.049Z,9.23
2018-09-09T05:20:56.476Z,10.07
2018-09-09T05:23:25.159Z,10.17
2018-09-09T05:25:53.563Z,9.33
2018-09-09T05:28:22.797Z,8.80
2018-09-09T05:30:51.351Z,9.53
2018-09-09T05:33:19.894Z,9.50
2018-09-09T05:35:48.487Z,9.50
2018-09-09T05:38:16.936Z,8.67
2018-09-09T05:40:45.425Z,8.97
2018-09-09T05:43:13.883Z,8.53
2018-09-09T05:45:42.340Z,7.90
2018-09-09T05:48:10.803Z,9.20
2018-09-09T05:50:39.249Z,8.27
2018-09-09T05:53:07.761Z,8.73
2018-09-09T05:55:36.922Z,8.50
2018-09-09T05:58:06.201Z,8.07
2018-09-09T06:00:34.644Z,8.53
2018-09-09T06:03:03.313Z,7.80
2018-09-09T06:05:31.784Z,8.00
2018-09-09T06:08:00.213Z,8.13
2018-09-09T06:10:28.733Z,8.47
2018-09-09T06:12:57.228Z,8.30
2018-09-09T06:15:26.263Z,7.83
2018-09-09T06:17:54.699Z,7.67
2018-09-09T06:20:23.194Z,8.03
2018-09-09T06:22:52.461Z,8.30
2018-09-09T06:25:21.002Z,7.33
2018-09-09T06:27:49.497Z,8.00
2018-09-09T06:30:17.903Z,7.80
2018-09-09T06:32:46.436Z,8.20
2018-09-09T06:35:14.889Z,7.93
2018-09-09T06:37:43.493Z,7.67
2018-09-09T06:40:12.027Z,8.30
2018-09-09T06:42:41.211Z,8.47
2018-09-09T06:45:09.642Z,7.70
2018-09-09T06:47:38.136Z,7.57
2018-09-09T06:50:07.171Z,7.87
2018-09-09T06:52:35.652Z,7.80
2018-09-09T06:55:04.747Z,7.80
2018-09-09T06:57:33.960Z,8.23
2018-09-09T07:00:03.079Z,7.17
2018-09-09T07:02:32.295Z,7.60
2018-09-09T07:05:00.752Z,7.07
2018-09-09T07:07:29.221Z,7.50
2018-09-09T07:09:58.310Z,6.87
2018-09-09T07:12:26.743Z,6.60
2018-09-09T07:14:55.266Z,7.00
2018-09-09T07:17:24.894Z,6.73
2018-09-09T07:19:53.398Z,6.43
2018-09-09T07:22:22.538Z,6.40
2018-09-09T07:24:51.844Z,6.67
2018-09-09T07:27:20.371Z,7.17
2018-09-09T07:29:48.915Z,6.50
2018-09-09T07:32:17.523Z,7.17
2018-09-09T07:34:45.976Z,6.57
2018-09-09T07:37:15.205Z,6.80
2018-09-09T07:39:43.757Z,6.37
2018-09-09T07:42:12.789Z,6.37
2018-09-09T07:44:41.261Z,6.20
2018-09-09T07:47:09.721Z,6.13
2018-09-09T07:49:38.336Z,5.90
2018-09-09T07:52:07.273Z,6.17
2018-09-09T07:54:35.758Z,6.20
2018-09-09T07:57:04.217Z,6.27
2018-09-09T07:59:32.683Z,6.30
2018-09-09T08:02:01.144Z,5.60
2018-09-09T08:04:29.597Z,6.30
2018-09-09T08:06:58.137Z,6.07
2018-09-09T08:09:26.731Z,6.17
2018-09-09T08:11:55.247Z,5.97
2018-09-09T08:14:23.709Z,5.90
2018-09-09T08:16:52.738Z,6.00
2018-09-09T08:19:21.194Z,6.17
2018-09-09T08:21:49.765Z,5.53
2018-09-09T08:24:18.229Z,5.20
2018-09-09T08:26:46.753Z,5.07
2018-09-09T08:29:15.311Z,5.23
2018-09-09T08:31:43.780Z,4.97
2018-09-09T08:34:12.428Z,5.50
2018-09-09T08:36:40.919Z,4.73
2018-09-09T08:39:10.490Z,4.57
2018-09-09T08:41:40.335Z,4.40
2018-09-09T08:44:09.712Z,4.10
2018-09-09T08:46:38.185Z,4.30
2018-09-09T08:49:06.853Z,4.40
2018-09-09T08:51:35.643Z,4.17
2018-09-09T08:54:04.248Z,4.00
2018-09-09T08:56:32.687Z,4.53
2018-09-09T08:59:01.228Z,4.23
2018-09-09T09:01:30.272Z,4.53
2018-09-09T09:03:58.707Z,4.30
2018-09-09T09:06:27.236Z,3.93
2018-09-09T09:08:56.234Z,3.87
2018-09-09T09:11:24.718Z,4.53
2018-09-09T09:13:53.319Z,3.70
2018-09-09T09:16:22.567Z,3.60
2018-09-09T09:18:51.177Z,3.70
2018-09-09T09:21:19.609Z,3.00
2018-09-09T09:23:48.143Z,3.07
2018-09-09T09:26:16.603Z,3.93
2018-09-09T09:28:45.701Z,2.83
2018-09-09T09:31:14.234Z,3.40
2018-09-09T09:33:42.761Z,3.20
2018-09-09T09:36:11.223Z,3.10
2018-09-09T09:38:39.682Z,3.30
2018-09-09T09:41:08.265Z,3.40
2018-09-09T09:43:36.717Z,2.73
2018-09-09T09:46:05.219Z,3.60
2018-09-09T09:48:34.631Z,3.70
2018-09-09T09:51:03.056Z,3.00
2018-09-09T09:53:31.781Z,2.97
2018-09-09T09:56:00.192Z,3.60
2018-09-09T09:58:28.640Z,3.70
2018-09-09T10:00:59.035Z,4.00
2018-09-09T10:03:27.586Z,3.43
2018-09-09T10:05:56.123Z,3.23
2018-09-09T10:08:25.285Z,3.70
2018-09-09T10:10:54.389Z,3.73
2018-09-09T10:13:22.852Z,4.00
2018-09-09T10:15:51.375Z,3.90
2018-09-09T10:18:19.919Z,3.80
2018-09-09T10:20:48.554Z,3.97
2018-09-09T10:23:17.032Z,3.63
2018-09-09T10:25:45.545Z,3.60
2018-09-09T10:28:14.079Z,3.90
2018-09-09T10:30:42.643Z,3.67
2018-09-09T10:33:11.222Z,3.73
2018-09-09T10:35:39.735Z,3.73
2018-09-09T10:38:08.379Z,3.17
2018-09-09T10:40:36.882Z,3.30
2018-09-09T10:43:05.668Z,3.33
2018-09-09T10:45:35.011Z,3.30
2018-09-09T10:48:03.582Z,2.93
2018-09-09T10:50:32.099Z,3.30
2018-09-09T10:53:01.343Z,3.10
2018-09-09T10:55:30.380Z,3.00
2018-09-09T10:57:58.860Z,2.80
2018-09-09T11:00:27.323Z,2.60
2018-09-09T11:02:55.900Z,2.90
2018-09-09T11:05:24.511Z,2.70
2018-09-09T11:07:53.043Z,2.73
2018-09-09T11:10:22.131Z,2.17
2018-09-09T11:12:50.623Z,2.87
2018-09-09T11:15:19.104Z,2.40
2018-09-09T11:17:47.673Z,2.50
2018-09-09T11:20:16.192Z,3.13
2018-09-09T11:22:44.713Z,2.83
2018-09-09T11:25:13.820Z,2.70
2018-09-09T11:27:42.384Z,2.70
2018-09-09T11:30:11.602Z,2.60
2018-09-09T11:32:40.086Z,2.50
2018-09-09T11:35:08.549Z,2.43
2018-09-09T11:37:37.074Z,2.57
2018-09-09T11:40:06.082Z,2.60
2018-09-09T11:42:35.399Z,2.37
2018-09-09T11:45:04.543Z,2.87
2018-09-09T11:47:33.790Z,3.17
2018-09-09T11:50:02.393Z,3.00
2018-09-09T11:52:31.265Z,3.23
2018-09-09T11:54:59.804Z,3.07
2018-09-09T11:57:28.316Z,2.80
2018-09-09T11:59:56.985Z,2.70
2018-09-09T12:02:25.421Z,2.80
2018-09-09T12:04:53.862Z,2.90
2018-09-09T12:07:28.053Z,3.10
2018-09-09T12:09:56.516Z,3.50
2018-09-09T12:12:27.236Z,3.37
2018-09-09T12:14:56.913Z,3.47
2018-09-09T12:17:25.439Z,3.57
2018-09-09T12:19:54.043Z,3.30
2018-09-09T12:22:23.281Z,3.37
2018-09-09T12:24:52.404Z,3.40
2018-09-09T12:27:20.882Z,3.30
2018-09-09T12:29:49.397Z,3.13
2018-09-09T12:32:17.975Z,2.70
2018-09-09T12:34:47.209Z,2.67
2018-09-09T12:37:15.775Z,2.80
2018-09-09T12:39:44.358Z,2.50
2018-09-09T12:42:12.867Z,2.40
2018-09-09T12:44:46.743Z,2.37
2018-09-09T12:47:20.819Z,2.13
2018-09-09T12:49:49.356Z,2.20
2018-09-09T12:52:17.811Z,2.50
2018-09-09T12:54:46.405Z,2.00
2018-09-09T12:57:14.865Z,2.30
2018-09-09T12:59:43.399Z,2.20
2018-09-09T13:02:11.878Z,2.23
2018-09-09T13:04:40.363Z,2.20
2018-09-09T13:07:09.545Z,2.10
2018-09-09T13:09:38.081Z,2.40
2018-09-09T13:12:06.661Z,2.03
2018-09-09T13:14:35.188Z,2.10
2018-09-09T13:17:04.359Z,2.13
2018-09-09T13:19:32.816Z,1.80
2018-09-09T13:22:01.296Z,2.20
2018-09-09T13:24:29.783Z,2.17
2018-09-09T13:26:58.245Z,2.30
2018-09-09T13:29:27.017Z,2.00
2018-09-09T13:31:56.216Z,2.10
2018-09-09T13:34:25.404Z,2.17
2018-09-09T13:36:54.623Z,2.40
2018-09-09T13:39:23.893Z,2.40
2018-09-09T13:41:52.383Z,2.10
2018-09-09T13:44:20.904Z,2.60
2018-09-09T13:46:50.046Z,2.70
2018-09-09T13:49:18.856Z,2.57
2018-09-09T13:51:47.340Z,3.03
2018-09-09T13:54:15.885Z,2.70
2018-09-09T13:56:44.857Z,2.60
2018-09-09T13:59:13.329Z,2.30
2018-09-09T14:01:41.973Z,2.40
2018-09-09T14:04:10.495Z,2.97
2018-09-09T14:06:38.976Z,2.73
2018-09-09T14:09:08.436Z,2.73
2018-09-09T14:11:36.957Z,2.67
2018-09-09T14:14:05.427Z,2.50
2018-09-09T14:16:33.980Z,3.00
2018-09-09T14:19:02.487Z,2.67
2018-09-09T14:21:31.010Z,2.93
2018-09-09T14:23:59.528Z,2.60
2018-09-09T14:26:28.074Z,2.70
2018-09-09T14:28:56.695Z,2.97
2018-09-09T14:31:25.315Z,2.70
2018-09-09T14:33:53.791Z,2.70
2018-09-09T14:36:22.312Z,2.87
2018-09-09T14:38:50.763Z,2.90
2018-09-09T14:41:19.267Z,2.80
2018-09-09T14:43:47.781Z,3.10
2018-09-09T14:46:16.294Z,3.37
2018-09-09T14:48:45.457Z,3.70
2018-09-09T14:51:14.704Z,2.90
2018-09-09T14:53:43.264Z,3.00
2018-09-09T14:56:11.886Z,3.37
2018-09-09T14:58:40.347Z,3.20
2018-09-09T15:01:08.835Z,2.70
2018-09-09T15:03:37.331Z,2.80
2018-09-09T15:06:06.028Z,3.20
2018-09-09T15:08:35.159Z,2.67
2018-09-09T15:11:03.633Z,3.20
2018-09-09T15:13:32.122Z,2.60
2018-09-09T15:16:01.391Z,3.00
2018-09-09T15:18:29.916Z,2.63
2018-09-09T15:20:58.537Z,2.70
2018-09-09T15:23:27.030Z,2.90
2018-09-09T15:25:55.552Z,2.57
2018-09-09T15:28:24.643Z,2.47
2018-09-09T15:30:53.109Z,2.70
2018-09-09T15:33:21.594Z,2.73
2018-09-09T15:35:50.870Z,2.47
2018-09-09T15:38:19.323Z,2.40
2018-09-09T15:40:47.936Z,2.73
2018-09-09T15:43:16.466Z,2.83
2018-09-09T15:45:45.020Z,2.57
2018-09-09T15:48:13.933Z,2.47
2018-09-09T15:50:42.517Z,2.50
2018-09-09T15:53:10.997Z,2.80
2018-09-09T15:55:39.512Z,2.73
2018-09-09T15:58:07.970Z,2.73
2018-09-09T16:00:36.851Z,2.50
2018-09-09T16:03:05.338Z,2.80
2018-09-09T16:05:34.542Z,2.80
2018-09-09T16:08:03.095Z,2.73
2018-09-09T16:10:31.828Z,2.70
2018-09-09T16:13:00.277Z,2.77
2018-09-09T16:15:29.377Z,2.30
2018-09-09T16:17:58.007Z,2.80
2018-09-09T16:20:26.488Z,2.77
2018-09-09T16:22:54.937Z,2.90
2018-09-09T16:25:23.418Z,2.60
2018-09-09T16:27:51.935Z,2.43
2018-09-09T16:30:27.195Z,2.30
2018-09-09T16:32:55.659Z,2.40
2018-09-09T16:35:24.296Z,2.60
2018-09-09T16:37:52.765Z,2.23
2018-09-09T16:40:22.455Z,2.37
2018-09-09T16:42:50.896Z,2.20
2018-09-09T16:45:19.439Z,2.43
2018-09-09T16:47:47.914Z,2.50
2018-09-09T16:50:16.488Z,2.53
2018-09-09T16:52:45.071Z,2.70
2018-09-09T16:55:13.563Z,2.27
2018-09-09T16:57:42.005Z,2.60
2018-09-09T17:00:10.492Z,2.63
2018-09-09T17:02:39.020Z,2.40
2018-09-09T17:05:07.579Z,2.50
2018-09-09T17:07:36.037Z,2.43
2018-09-09T17:10:04.585Z,2.60
2018-09-09T17:12:33.180Z,3.00
2018-09-09T17:15:02.308Z,2.67
2018-09-09T17:17:30.777Z,2.70
2018-09-09T17:19:59.297Z,2.60
2018-09-09T17:22:27.796Z,2.70
2018-09-09T17:24:56.335Z,2.37
2018-09-09T17:27:26.097Z,2.60
2018-09-09T17:29:54.601Z,2.27
2018-09-09T17:32:23.069Z,2.30
2018-09-09T17:34:51.653Z,2.40
2018-09-09T17:37:20.147Z,2.43
2018-09-09T17:39:48.896Z,2.67
2018-09-09T17:42:17.341Z,2.67
2018-09-09T17:44:45.898Z,2.40
2018-09-09T17:47:14.446Z,2.50
2018-09-09T17:49:43.003Z,2.47
2018-09-09T17:52:12.124Z,2.53
2018-09-09T17:54:40.717Z,2.47
2018-09-09T17:57:09.988Z,2.70
2018-09-09T17:59:38.657Z,2.50
2018-09-09T18:02:07.130Z,2.37
2018-09-09T18:04:35.778Z,2.50
2018-09-09T18:07:04.265Z,2.00
2018-09-09T18:09:32.805Z,2.90
2018-09-09T18:12:02.204Z,2.90
2018-09-09T18:14:30.715Z,2.40
2018-09-09T18:16:59.746Z,2.50
2018-09-09T18:19:28.244Z,2.33
2018-09-09T18:21:56.746Z,2.40
2018-09-09T18:24:26.019Z,2.60
2018-09-09T18:26:54.549Z,2.50
2018-09-09T18:29:23.130Z,2.83
2018-09-09T18:31:51.639Z,2.90
2018-09-09T18:34:20.126Z,2.60
2018-09-09T18:36:49.457Z,2.70
2018-09-09T18:39:17.999Z,2.67
2018-09-09T18:41:46.505Z,2.60
2018-09-09T18:44:15.083Z,2.63
2018-09-09T18:46:43.529Z,2.83
2018-09-09T18:49:12.015Z,2.60
2018-09-09T18:51:40.551Z,3.33
2018-09-09T18:54:09.032Z,3.07
2018-09-09T18:56:37.514Z,2.90
2018-09-09T18:59:06.182Z,3.00
2018-09-09T19:01:34.575Z,4.47
2018-09-09T19:04:03.124Z,3.90
2018-09-09T19:06:31.685Z,3.73
2018-09-09T19:09:00.322Z,3.70
2018-09-09T19:11:28.755Z,3.57
2018-09-09T19:13:57.321Z,3.80
2018-09-09T19:16:26.440Z,3.13
2018-09-09T19:18:54.946Z,3.47
2018-09-09T19:21:23.624Z,3.50
2018-09-09T19:23:52.083Z,3.87
2018-09-09T19:26:20.681Z,3.40
2018-09-09T19:28:49.757Z,3.27
2018-09-09T19:31:18.210Z,3.77
2018-09-09T19:33:46.696Z,3.93
2018-09-09T19:36:15.231Z,3.50
2018-09-09T19:38:47.178Z,4.17
2018-09-09T19:41:15.707Z,3.60
2018-09-09T19:43:44.226Z,3.30
2018-09-09T19:46:12.747Z,3.30
2018-09-09T19:48:41.333Z,3.13
2018-09-09T19:51:09.830Z,3.50
2018-09-09T19:53:39.013Z,3.83
2018-09-09T19:56:07.624Z,3.47
2018-09-09T19:58:36.163Z,3.40
2018-09-09T20:01:04.700Z,3.50
2018-09-09T20:03:33.919Z,3.70
2018-09-09T20:06:03.030Z,3.50
2018-09-09T20:08:31.441Z,3.80
2018-09-09T20:11:00.004Z,4.03
2018-09-09T20:13:28.500Z,3.83
2018-09-09T20:15:58.730Z,3.70
2018-09-09T20:18:27.153Z,4.10
2018-09-09T20:20:56.080Z,4.10
2018-09-09T20:23:24.617Z,4.00
2018-09-09T20:25:53.193Z,3.83
2018-09-09T20:28:21.625Z,3.80
2018-09-09T20:30:50.112Z,4.60
2018-09-09T20:33:18.572Z,4.00
2018-09-09T20:35:47.066Z,4.10
2018-09-09T20:38:15.533Z,4.67
2018-09-09T20:40:44.015Z,4.00
2018-09-09T20:43:12.496Z,4.90
2018-09-09T20:45:41.105Z,5.30
2018-09-09T20:48:09.625Z,4.90
2018-09-09T20:50:38.242Z,4.80
2018-09-09T20:53:06.799Z,4.73
2018-09-09T20:55:36.528Z,4.90
2018-09-09T20:58:05.318Z,4.70
2018-09-09T21:00:33.778Z,4.97
2018-09-09T21:03:02.351Z,4.83
2018-09-09T21:05:30.942Z,4.87
2018-09-09T21:08:00.112Z,5.10
2018-09-09T21:10:28.610Z,5.10
2018-09-09T21:12:57.039Z,4.97
2018-09-09T21:15:25.537Z,5.50
2018-09-09T21:17:54.091Z,5.90
2018-09-09T21:20:23.249Z,5.40
2018-09-09T21:22:51.714Z,5.23
2018-09-09T21:25:20.183Z,5.57
2018-09-09T21:27:48.627Z,5.63
2018-09-09T21:30:17.101Z,5.83
2018-09-09T21:32:46.181Z,6.03
2018-09-09T21:35:14.659Z,5.63
2018-09-09T21:37:43.820Z,5.90
2018-09-09T21:40:12.492Z,5.37
2018-09-09T21:42:41.666Z,5.40
2018-09-09T21:45:10.169Z,5.60
2018-09-09T21:47:38.681Z,5.30
2018-09-09T21:50:07.164Z,5.17
2018-09-09T21:52:35.605Z,5.57
2018-09-09T21:55:04.281Z,4.83
2018-09-09T21:57:32.766Z,5.30
2018-09-09T22:00:01.497Z,4.87
2018-09-09T22:02:29.965Z,5.10
2018-09-09T22:04:58.429Z,5.30
2018-09-09T22:07:26.897Z,5.23
2018-09-09T22:09:55.398Z,5.67
2018-09-09T22:12:23.886Z,5.67
2018-09-09T22:14:53.109Z,5.00
2018-09-09T22:17:22.174Z,5.67
2018-09-09T22:19:50.913Z,5.40
2018-09-09T22:22:19.346Z,5.00
2018-09-09T22:24:47.877Z,5.23
2018-09-09T22:27:16.333Z,4.93
2018-09-09T22:29:44.938Z,4.73
2018-09-09T22:32:13.431Z,5.03
2018-09-09T22:34:41.920Z,5.27
2018-09-09T22:37:10.469Z,5.33
2018-09-09T22:39:38.938Z,5.40
2018-09-09T22:42:07.426Z,5.23
2018-09-09T22:44:35.887Z,5.40
2018-09-09T22:47:04.455Z,5.17
2018-09-09T22:49:32.928Z,5.17
2018-09-09T22:52:01.413Z,5.00
2018-09-09T22:54:29.866Z,5.00
2018-09-09T22:56:58.906Z,4.90
2018-09-09T22:59:27.341Z,4.93
2018-09-09T23:01:56.460Z,5.27
2018-09-09T23:04:25.869Z,4.90
2018-09-09T23:06:54.290Z,4.87
2018-09-09T23:09:22.766Z,4.30
2018-09-09T23:11:51.267Z,5.07
2018-09-09T23:14:19.879Z,4.73
2018-09-09T23:16:48.347Z,4.40
2018-09-09T23:19:16.840Z,5.13
2018-09-09T23:21:45.306Z,5.10
2018-09-09T23:24:13.772Z,4.50
2018-09-09T23:26:42.208Z,4.50
2018-09-09T23:29:10.670Z,4.90
2018-09-09T23:31:39.109Z,4.63
2018-09-09T23:34:07.596Z,4.70
2018-09-09T23:36:36.019Z,4.83
2018-09-09T23:39:06.293Z,4.87
2018-09-09T23:41:34.740Z,5.00
2018-09-09T23:44:03.196Z,4.57
2018-09-09T23:46:31.684Z,4.40
2018-09-09T23:49:00.139Z,4.47
2018-09-09T23:51:29.095Z,4.70
2018-09-09T23:53:57.552Z,4.50
2018-09-09T23:56:26.419Z,4.83
2018-09-09T23:58:54.914Z,4.53
